createdAt,value
2023-07-15T00:02:15.245Z,21.90
2023-07-15T00:04:47.826Z,22.40
2023-07-15T00:07:18.282Z,22.00
2023-07-15T00:09:48.600Z,22.00
2023-07-15T00:12:19.371Z,21.90
2023-07-15T00:14:49.317Z,22.10
2023-07-15T00:17:19.777Z,21.90
2023-07-15T00:19:52.288Z,21.90
2023-07-15T00:22:22.826Z,21.80
2023-07-15T00:24:53.644Z,21.80
2023-07-15T00:27:27.038Z,21.80
2023-07-15T00:29:57.528Z,21.80
2023-07-15T00:32:28.916Z,21.80
2023-07-15T00:35:00.685Z,21.80
2023-07-15T00:37:32.230Z,21.70
2023-07-15T00:40:05.792Z,21.50
2023-07-15T00:43:05.720Z,21.60
2023-07-15T00:45:34.792Z,21.50
2023-07-15T00:48:16.036Z,21.50
2023-07-15T00:50:46.269Z,21.40
2023-07-15T00:53:16.966Z,21.00
2023-07-15T00:55:47.505Z,21.30
2023-07-15T00:58:17.588Z,21.40
2023-07-15T01:04:37.719Z,21.20
2023-07-15T01:07:10.250Z,21.40
2023-07-15T01:09:41.480Z,21.10
2023-07-15T01:12:23.045Z,21.10
2023-07-15T01:14:54.134Z,21.10
2023-07-15T01:17:24.605Z,21.10
2023-07-15T01:19:56.548Z,21.00
2023-07-15T01:22:27.664Z,21.00
2023-07-15T01:24:59.930Z,21.00
2023-07-15T01:27:30.166Z,21.00
2023-07-15T01:30:00.608Z,21.00
2023-07-15T01:32:31.507Z,21.00
2023-07-15T01:35:08.286Z,21.00
2023-07-15T01:37:41.890Z,21.00
2023-07-15T01:40:15.000Z,20.80
2023-07-15T01:42:44.896Z,20.80
2023-07-15T01:45:15.756Z,21.00
2023-07-15T01:47:46.035Z,20.80
2023-07-15T01:50:16.258Z,20.70
2023-07-15T01:52:46.813Z,20.70
2023-07-15T01:55:18.856Z,20.70
2023-07-15T01:58:09.510Z,20.70
2023-07-15T02:00:48.585Z,20.70
2023-07-15T02:03:25.184Z,20.60
2023-07-15T02:06:01.469Z,20.80
2023-07-15T02:08:43.031Z,20.50
2023-07-15T02:11:24.805Z,20.50
2023-07-15T02:14:04.382Z,20.50
2023-07-15T02:16:40.370Z,20.50
2023-07-15T02:19:10.744Z,20.50
2023-07-15T02:21:41.770Z,20.50
2023-07-15T02:24:11.805Z,20.40
2023-07-15T02:26:43.811Z,20.30
2023-07-15T02:29:16.246Z,20.50
2023-07-15T02:31:46.469Z,20.40
2023-07-15T02:34:18.017Z,20.40
2023-07-15T02:36:49.664Z,20.50
2023-07-15T02:39:19.930Z,20.40
2023-07-15T02:41:52.049Z,20.40
2023-07-15T02:44:22.120Z,20.50
2023-07-15T02:46:52.552Z,20.40
2023-07-15T02:49:23.045Z,20.50
2023-07-15T02:51:57.092Z,20.40
2023-07-15T02:54:31.806Z,20.30
2023-07-15T02:57:03.963Z,20.40
2023-07-15T02:59:36.101Z,20.30
2023-07-15T03:02:07.079Z,20.30
2023-07-15T03:04:37.583Z,20.20
2023-07-15T03:07:09.077Z,20.30
2023-07-15T03:09:39.344Z,20.20
2023-07-15T03:12:12.017Z,20.30
2023-07-15T03:14:43.755Z,20.30
2023-07-15T03:17:14.064Z,20.30
2023-07-15T03:19:43.982Z,20.30
2023-07-15T03:22:14.076Z,20.20
2023-07-15T03:24:44.158Z,20.30
2023-07-15T03:27:15.644Z,20.30
2023-07-15T03:29:45.863Z,20.30
2023-07-15T03:32:16.280Z,20.10
2023-07-15T03:34:46.379Z,20.20
2023-07-15T03:37:17.273Z,20.20
2023-07-15T03:39:53.425Z,20.20
2023-07-15T03:42:31.317Z,20.20
2023-07-15T03:45:05.095Z,20.30
2023-07-15T03:47:39.209Z,20.20
2023-07-15T03:50:15.063Z,20.10
2023-07-15T03:52:49.077Z,20.30
2023-07-15T03:55:21.640Z,20.10
2023-07-15T03:57:54.187Z,20.10
2023-07-15T04:00:25.161Z,20.10
2023-07-15T04:02:56.890Z,20.40
2023-07-15T04:05:26.874Z,20.30
2023-07-15T04:07:57.908Z,20.00
2023-07-15T04:10:29.925Z,20.00
2023-07-15T04:13:01.643Z,20.00
2023-07-15T04:15:33.655Z,20.00
2023-07-15T04:18:03.914Z,19.70
2023-07-15T04:20:34.949Z,19.70
2023-07-15T04:23:05.170Z,19.90
2023-07-15T04:25:35.594Z,20.00
2023-07-15T04:28:09.392Z,20.00
2023-07-15T04:30:41.498Z,20.20
2023-07-15T04:33:13.812Z,20.10
2023-07-15T04:35:44.728Z,20.10
2023-07-15T04:38:15.617Z,20.20
2023-07-15T04:40:45.882Z,20.20
2023-07-15T04:43:18.168Z,20.20
2023-07-15T04:45:48.656Z,20.30
2023-07-15T04:48:25.005Z,19.80
2023-07-15T04:51:01.600Z,20.10
2023-07-15T04:53:32.300Z,20.40
2023-07-15T04:56:04.436Z,20.20
2023-07-15T04:58:33.882Z,20.20
2023-07-15T05:01:01.924Z,20.20
2023-07-15T05:03:30.058Z,20.40
2023-07-15T05:05:59.231Z,20.20
2023-07-15T05:08:29.001Z,20.30
2023-07-15T05:10:58.915Z,20.30
2023-07-15T05:13:27.382Z,20.40
2023-07-15T05:15:57.602Z,20.40
2023-07-15T05:18:25.771Z,20.40
2023-07-15T05:20:54.074Z,20.50
2023-07-15T05:23:22.993Z,20.60
2023-07-15T05:25:50.963Z,20.60
2023-07-15T05:28:20.036Z,20.60
2023-07-15T05:30:49.133Z,21.00
2023-07-15T05:33:19.947Z,20.90
2023-07-15T05:35:48.807Z,20.80
2023-07-15T05:38:16.825Z,20.90
2023-07-15T05:40:45.073Z,21.00
2023-07-15T05:43:13.028Z,21.00
2023-07-15T05:45:41.182Z,21.30
2023-07-15T05:48:09.454Z,21.70
2023-07-15T05:50:38.919Z,21.30
2023-07-15T05:53:06.873Z,21.40
2023-07-15T05:55:35.746Z,21.50
2023-07-15T05:58:10.622Z,21.60
2023-07-15T06:00:39.965Z,21.60
2023-07-15T06:03:08.304Z,21.60
2023-07-15T06:05:38.217Z,21.50
2023-07-15T06:08:06.766Z,21.90
2023-07-15T06:10:34.968Z,21.70
2023-07-15T06:13:03.383Z,21.70
2023-07-15T06:15:32.230Z,21.70
2023-07-15T06:18:00.447Z,21.80
2023-07-15T06:20:28.774Z,21.80
2023-07-15T06:22:58.342Z,21.90
2023-07-15T06:25:30.658Z,22.10
2023-07-15T06:27:58.684Z,22.10
2023-07-15T06:30:27.320Z,22.60
2023-07-15T06:32:55.777Z,22.40
2023-07-15T06:35:23.822Z,22.50
2023-07-15T06:37:52.387Z,22.50
2023-07-15T06:40:22.261Z,22.60
2023-07-15T06:42:51.630Z,22.70
2023-07-15T06:45:22.208Z,22.70
2023-07-15T06:47:50.717Z,22.90
2023-07-15T06:50:18.849Z,22.90
2023-07-15T06:52:47.965Z,22.90
2023-07-15T06:55:16.487Z,23.00
2023-07-15T06:57:45.823Z,23.10
2023-07-15T07:00:15.133Z,23.10
2023-07-15T07:02:43.223Z,23.20
2023-07-15T07:05:11.321Z,23.20
2023-07-15T07:07:39.290Z,23.30
2023-07-15T07:10:08.339Z,23.30
2023-07-15T07:12:36.707Z,23.40
2023-07-15T07:15:07.547Z,23.40
2023-07-15T07:17:37.003Z,23.50
2023-07-15T07:20:05.575Z,23.50
2023-07-15T07:22:33.564Z,23.50
2023-07-15T07:25:02.903Z,23.60
2023-07-15T07:27:30.851Z,23.60
2023-07-15T07:30:00.716Z,23.90
2023-07-15T07:32:30.167Z,24.10
2023-07-15T07:34:59.440Z,24.10
2023-07-15T07:37:27.493Z,24.10
2023-07-15T07:39:55.554Z,24.10
2023-07-15T07:42:23.663Z,24.00
2023-07-15T07:44:51.716Z,24.00
2023-07-15T07:47:19.794Z,24.00
2023-07-15T07:49:49.394Z,23.90
2023-07-15T07:52:17.367Z,24.00
2023-07-15T07:54:45.401Z,24.00
2023-07-15T07:57:28.924Z,24.00
2023-07-15T08:04:52.476Z,24.10
2023-07-15T08:07:23.838Z,24.20
2023-07-15T08:09:56.113Z,24.30
2023-07-15T08:12:28.864Z,24.40
2023-07-15T08:14:59.058Z,24.60
2023-07-15T08:17:28.688Z,24.60
2023-07-15T08:20:00.925Z,24.70
2023-07-15T08:26:21.011Z,25.00
2023-07-15T08:28:51.607Z,25.30
2023-07-15T08:31:21.027Z,25.60
2023-07-15T08:33:55.156Z,25.90
2023-07-15T08:36:26.484Z,26.20
2023-07-15T08:38:57.362Z,26.40
2023-07-15T08:41:36.632Z,26.50
2023-07-15T08:44:07.136Z,26.60
2023-07-15T08:46:37.124Z,26.70
2023-07-15T08:49:07.901Z,26.70
2023-07-15T08:51:39.516Z,26.80
2023-07-15T08:54:12.223Z,26.90
2023-07-15T08:56:53.894Z,26.90
2023-07-15T08:59:28.943Z,27.10
2023-07-15T09:01:57.495Z,27.30
2023-07-15T09:04:27.215Z,27.40
2023-07-15T09:06:56.420Z,27.40
2023-07-15T09:09:33.245Z,27.40
2023-07-15T09:12:11.031Z,27.40
2023-07-15T09:14:52.958Z,27.20
2023-07-15T09:17:26.374Z,27.00
2023-07-15T09:19:55.697Z,26.80
2023-07-15T09:22:28.444Z,26.70
2023-07-15T09:25:05.964Z,26.50
2023-07-15T09:27:35.489Z,26.50
2023-07-15T09:30:03.580Z,26.40
2023-07-15T09:32:34.288Z,26.30
2023-07-15T09:35:07.192Z,26.30
2023-07-15T09:37:39.265Z,26.30
2023-07-15T09:40:10.272Z,26.30
2023-07-15T09:42:56.558Z,26.30
2023-07-15T09:45:36.159Z,26.30
2023-07-15T09:48:08.116Z,26.20
2023-07-15T09:50:39.541Z,26.20
2023-07-15T09:53:08.545Z,26.10
2023-07-15T09:55:39.566Z,26.10
2023-07-15T09:58:18.289Z,26.00
2023-07-15T10:00:51.175Z,26.00
2023-07-15T10:03:24.017Z,25.90
2023-07-15T10:05:54.619Z,25.90
2023-07-15T10:08:23.715Z,25.80
2023-07-15T10:10:52.018Z,25.70
2023-07-15T10:13:22.694Z,25.70
2023-07-15T10:15:51.360Z,25.70
2023-07-15T10:18:20.967Z,25.70
2023-07-15T10:20:54.895Z,25.70
2023-07-15T10:23:28.056Z,25.70
2023-07-15T10:26:07.873Z,25.70
2023-07-15T10:28:39.925Z,25.70
2023-07-15T10:31:12.994Z,25.70
2023-07-15T10:33:55.845Z,25.80
2023-07-15T10:36:46.288Z,25.70
2023-07-15T10:39:17.586Z,25.60
2023-07-15T10:41:47.877Z,25.50
2023-07-15T10:44:22.245Z,25.50
2023-07-15T10:46:52.955Z,25.50
2023-07-15T10:49:23.021Z,25.40
2023-07-15T10:51:56.374Z,25.40
2023-07-15T10:54:26.520Z,25.40
2023-07-15T10:56:55.159Z,25.40
2023-07-15T10:59:26.574Z,25.40
2023-07-15T11:01:55.779Z,25.30
2023-07-15T11:04:24.041Z,25.20
2023-07-15T11:06:53.595Z,25.20
2023-07-15T11:09:23.575Z,25.10
2023-07-15T11:11:53.604Z,25.10
2023-07-15T11:14:24.651Z,25.00
2023-07-15T11:16:53.892Z,25.00
2023-07-15T11:19:22.485Z,25.00
2023-07-15T11:21:51.130Z,25.00
2023-07-15T11:24:20.178Z,25.10
2023-07-15T11:26:48.402Z,25.00
2023-07-15T11:29:18.019Z,24.90
2023-07-15T11:31:49.909Z,24.90
2023-07-15T11:34:19.919Z,24.90
2023-07-15T11:36:50.235Z,24.90
2023-07-15T11:39:19.334Z,25.00
2023-07-15T11:41:48.252Z,24.80
2023-07-15T11:44:18.536Z,24.80
2023-07-15T11:46:49.483Z,24.80
2023-07-15T11:49:23.403Z,24.70
2023-07-15T11:51:56.766Z,24.80
2023-07-15T11:54:26.154Z,24.80
2023-07-15T11:56:59.867Z,24.80
2023-07-15T11:59:31.079Z,24.80
2023-07-15T12:02:04.322Z,24.90
2023-07-15T12:04:33.022Z,24.90
2023-07-15T12:07:06.014Z,24.90
2023-07-15T12:09:34.804Z,24.90
2023-07-15T12:12:03.180Z,24.80
2023-07-15T12:14:35.148Z,24.80
2023-07-15T12:17:07.140Z,24.80
2023-07-15T12:19:35.561Z,24.80
2023-07-15T12:22:04.324Z,24.80
2023-07-15T12:24:32.648Z,24.90
2023-07-15T12:27:01.177Z,25.00
2023-07-15T12:29:29.331Z,25.00
2023-07-15T12:31:57.493Z,25.10
2023-07-15T12:34:27.065Z,25.10
2023-07-15T12:36:57.926Z,25.10
2023-07-15T12:39:26.333Z,25.20
2023-07-15T12:41:56.309Z,25.10
2023-07-15T12:44:25.047Z,25.10
2023-07-15T12:46:53.249Z,25.10
2023-07-15T12:49:22.202Z,25.10
2023-07-15T12:51:53.337Z,25.10
2023-07-15T12:54:21.644Z,25.00
2023-07-15T12:56:50.382Z,24.90
2023-07-15T12:59:19.406Z,24.80
2023-07-15T13:01:47.756Z,24.60
2023-07-15T13:04:18.955Z,24.40
2023-07-15T13:06:48.868Z,24.20
2023-07-15T13:09:19.394Z,24.00
2023-07-15T13:11:47.955Z,23.70
2023-07-15T13:14:17.798Z,23.60
2023-07-15T13:16:48.991Z,23.70
2023-07-15T13:19:17.554Z,23.70
2023-07-15T13:21:45.999Z,23.70
2023-07-15T13:24:27.332Z,23.70
2023-07-15T13:26:56.628Z,23.60
2023-07-15T13:29:26.594Z,23.50
2023-07-15T13:31:55.678Z,23.60
2023-07-15T13:34:25.380Z,23.60
2023-07-15T13:36:53.699Z,23.60
2023-07-15T13:39:37.411Z,23.60
2023-07-15T13:42:08.347Z,23.60
2023-07-15T13:44:36.877Z,23.80
2023-07-15T13:47:07.017Z,23.50
2023-07-15T13:49:37.990Z,23.80
2023-07-15T13:52:07.478Z,23.40
2023-07-15T13:54:37.513Z,23.30
2023-07-15T13:57:06.600Z,23.20
2023-07-15T13:59:35.460Z,23.20
2023-07-15T14:02:04.119Z,23.20
2023-07-15T14:04:32.750Z,23.10
2023-07-15T14:07:01.927Z,23.00
2023-07-15T14:09:31.745Z,22.90
2023-07-15T14:12:01.432Z,22.90
2023-07-15T14:14:32.022Z,22.80
2023-07-15T14:17:00.574Z,22.60
2023-07-15T14:19:28.958Z,22.70
2023-07-15T14:22:13.744Z,22.70
2023-07-15T14:24:44.394Z,22.60
2023-07-15T14:27:15.384Z,22.60
2023-07-15T14:29:44.484Z,22.60
2023-07-15T14:32:13.778Z,22.50
2023-07-15T14:34:43.602Z,22.50
2023-07-15T14:37:12.189Z,22.60
2023-07-15T14:39:40.734Z,22.50
2023-07-15T14:42:09.236Z,22.40
2023-07-15T14:44:38.953Z,22.40
2023-07-15T14:47:07.595Z,22.40
2023-07-15T14:49:37.391Z,22.40
2023-07-15T14:52:06.732Z,22.50
2023-07-15T14:54:37.805Z,22.40
2023-07-15T14:57:08.456Z,22.30
2023-07-15T14:59:38.807Z,22.30
2023-07-15T15:02:08.067Z,22.30
2023-07-15T15:04:37.177Z,22.30
2023-07-15T15:07:07.705Z,22.30
2023-07-15T15:09:37.307Z,22.30
2023-07-15T15:12:07.089Z,22.30
2023-07-15T15:14:36.983Z,22.30
2023-07-15T15:17:07.536Z,22.30
2023-07-15T15:19:36.178Z,22.20
2023-07-15T15:22:04.891Z,22.20
2023-07-15T15:24:33.361Z,22.10
2023-07-15T15:27:01.984Z,22.10
2023-07-15T15:29:30.851Z,22.10
2023-07-15T15:32:00.418Z,22.40
2023-07-15T15:34:31.043Z,22.20
2023-07-15T15:37:00.079Z,22.20
2023-07-15T15:39:29.088Z,22.10
2023-07-15T15:41:58.353Z,21.90
2023-07-15T15:44:27.403Z,22.20
2023-07-15T15:46:58.933Z,22.20
2023-07-15T15:49:27.907Z,22.20
2023-07-15T15:51:59.321Z,22.30
2023-07-15T15:54:27.444Z,22.30
2023-07-15T15:56:56.227Z,22.30
2023-07-15T15:59:24.811Z,22.40
2023-07-15T16:01:53.292Z,22.40
2023-07-15T16:04:21.587Z,22.50
2023-07-15T16:06:50.820Z,22.50
2023-07-15T16:09:20.369Z,22.60
2023-07-15T16:11:48.806Z,22.60
2023-07-15T16:14:17.572Z,22.70
2023-07-15T16:16:46.272Z,22.40
2023-07-15T16:19:14.937Z,22.80
2023-07-15T16:21:44.027Z,22.90
2023-07-15T16:24:12.145Z,22.90
2023-07-15T16:26:41.592Z,23.00
2023-07-15T16:29:09.957Z,23.10
2023-07-15T16:31:40.386Z,23.10
2023-07-15T16:34:08.631Z,23.10
2023-07-15T16:36:36.928Z,23.10
2023-07-15T16:39:05.637Z,23.00
2023-07-15T16:41:34.343Z,23.00
2023-07-15T16:44:05.005Z,23.00
2023-07-15T16:46:33.100Z,23.10
2023-07-15T16:49:02.819Z,23.20
2023-07-15T16:51:31.071Z,23.30
2023-07-15T16:54:00.040Z,23.30
2023-07-15T16:56:28.060Z,23.30
2023-07-15T16:58:56.443Z,23.40
2023-07-15T17:01:27.778Z,23.30
2023-07-15T17:03:57.352Z,23.30
2023-07-15T17:06:25.622Z,23.30
2023-07-15T17:08:53.898Z,23.30
2023-07-15T17:11:22.317Z,23.40
2023-07-15T17:13:50.807Z,23.40
2023-07-15T17:16:19.108Z,23.40
2023-07-15T17:18:48.973Z,23.40
2023-07-15T17:21:17.496Z,23.30
2023-07-15T17:23:46.058Z,23.50
2023-07-15T17:26:14.953Z,23.20
2023-07-15T17:28:43.430Z,22.70
2023-07-15T17:31:14.896Z,23.20
2023-07-15T17:33:44.590Z,23.20
2023-07-15T17:36:14.827Z,23.10
2023-07-15T17:38:43.524Z,23.20
2023-07-15T17:41:11.827Z,23.30
2023-07-15T17:43:40.126Z,23.30
2023-07-15T17:46:08.597Z,23.30
2023-07-15T17:48:37.783Z,23.30
2023-07-15T17:51:06.397Z,23.40
2023-07-15T17:53:36.215Z,23.40
2023-07-15T17:56:04.432Z,23.40
2023-07-15T17:58:32.598Z,23.50
2023-07-15T18:01:03.258Z,23.60
2023-07-15T18:03:31.881Z,23.50
2023-07-15T18:06:00.241Z,23.30
2023-07-15T18:08:29.620Z,23.40
2023-07-15T18:10:59.353Z,23.40
2023-07-15T18:13:29.628Z,23.40
2023-07-15T18:15:58.021Z,23.40
2023-07-15T18:18:26.473Z,23.30
2023-07-15T18:20:55.002Z,23.30
2023-07-15T18:23:23.285Z,23.30
2023-07-15T18:25:51.911Z,23.30
2023-07-15T18:28:21.771Z,23.30
2023-07-15T18:30:50.174Z,23.30
2023-07-15T18:33:18.644Z,23.20
2023-07-15T18:35:48.439Z,23.30
2023-07-15T18:38:17.684Z,23.20
2023-07-15T18:40:47.634Z,23.20
2023-07-15T18:43:16.234Z,23.30
2023-07-15T18:45:46.508Z,23.20
2023-07-15T18:48:14.860Z,23.00
2023-07-15T18:50:43.725Z,23.40
2023-07-15T18:53:12.073Z,23.20
2023-07-15T18:55:41.228Z,23.20
2023-07-15T18:58:10.041Z,23.20
2023-07-15T19:00:38.536Z,23.20
2023-07-15T19:03:08.274Z,23.20
2023-07-15T19:05:36.826Z,23.20
2023-07-15T19:08:05.249Z,23.10
2023-07-15T19:10:33.996Z,23.20
2023-07-15T19:13:02.661Z,23.20
2023-07-15T19:15:31.294Z,23.20
2023-07-15T19:17:59.837Z,23.20
2023-07-15T19:20:30.574Z,23.00
2023-07-15T19:22:59.324Z,23.10
2023-07-15T19:25:27.823Z,23.10
2023-07-15T19:27:56.459Z,23.10
2023-07-15T19:30:26.134Z,23.00
2023-07-15T19:32:56.302Z,23.00
2023-07-15T19:35:27.309Z,23.00
2023-07-15T19:37:57.323Z,23.00
2023-07-15T19:40:25.737Z,23.00
2023-07-15T19:42:53.923Z,23.00
2023-07-15T19:45:23.474Z,22.90
2023-07-15T19:47:52.710Z,22.90
2023-07-15T19:50:21.406Z,22.80
2023-07-15T19:52:50.623Z,22.70
2023-07-15T19:55:20.786Z,22.70
2023-07-15T19:57:50.253Z,22.40
2023-07-15T20:00:19.556Z,22.40
2023-07-15T20:02:48.684Z,22.20
2023-07-15T20:05:18.611Z,22.10
2023-07-15T20:07:49.179Z,22.00
2023-07-15T20:10:18.123Z,22.00
2023-07-15T20:12:50.915Z,21.90
2023-07-15T20:15:19.819Z,21.90
2023-07-15T20:17:48.804Z,21.80
2023-07-15T20:20:18.125Z,21.90
2023-07-15T20:22:48.050Z,22.10
2023-07-15T20:25:17.581Z,21.90
2023-07-15T20:27:48.627Z,21.90
2023-07-15T20:30:17.770Z,21.90
2023-07-15T20:32:46.598Z,21.90
2023-07-15T20:35:17.342Z,22.00
2023-07-15T20:37:46.954Z,22.10
2023-07-15T20:40:15.357Z,21.90
2023-07-15T20:42:44.312Z,21.80
2023-07-15T20:45:15.112Z,21.80
2023-07-15T20:47:45.464Z,21.80
2023-07-15T20:50:15.544Z,21.80
2023-07-15T20:52:43.954Z,21.80
2023-07-15T20:55:13.233Z,21.70
2023-07-15T20:57:42.298Z,21.60
2023-07-15T21:00:13.182Z,21.60
2023-07-15T21:02:43.507Z,21.60
2023-07-15T21:05:13.183Z,21.60
2023-07-15T21:07:43.136Z,21.50
2023-07-15T21:10:11.746Z,21.50
2023-07-15T21:12:40.310Z,21.50
2023-07-15T21:15:09.794Z,21.60
2023-07-15T21:17:38.482Z,21.60
2023-07-15T21:20:12.458Z,21.60
2023-07-15T21:22:42.368Z,21.50
2023-07-15T21:25:11.482Z,21.60
2023-07-15T21:27:41.911Z,21.50
2023-07-15T21:30:14.503Z,21.50
2023-07-15T21:32:44.228Z,21.60
2023-07-15T21:35:16.093Z,21.60
2023-07-15T21:37:47.625Z,21.60
2023-07-15T21:40:17.363Z,21.60
2023-07-15T21:42:47.758Z,21.60
2023-07-15T21:45:20.508Z,21.50
2023-07-15T21:47:51.633Z,21.50
2023-07-15T21:50:24.672Z,21.40
2023-07-15T21:52:58.676Z,21.40
2023-07-15T21:55:29.790Z,21.40
2023-07-15T21:57:59.812Z,21.40
2023-07-15T22:00:30.047Z,21.50
2023-07-15T22:03:00.615Z,21.40
2023-07-15T22:05:31.690Z,21.40
2023-07-15T22:08:03.169Z,21.40
2023-07-15T22:10:32.786Z,21.40
2023-07-15T22:13:01.400Z,21.40
2023-07-15T22:15:31.840Z,21.40
2023-07-15T22:18:00.281Z,21.50
2023-07-15T22:20:30.778Z,21.20
2023-07-15T22:22:59.120Z,21.20
2023-07-15T22:25:27.461Z,21.20
2023-07-15T22:27:56.072Z,21.10
2023-07-15T22:30:24.627Z,21.00
2023-07-15T22:32:53.122Z,21.00
2023-07-15T22:35:21.529Z,21.10
2023-07-15T22:37:52.293Z,21.10
2023-07-15T22:40:20.860Z,20.80
2023-07-15T22:42:49.540Z,21.00
2023-07-15T22:45:18.649Z,20.90
2023-07-15T22:47:46.904Z,21.00
2023-07-15T22:50:15.966Z,20.90
2023-07-15T22:52:45.277Z,20.90
2023-07-15T22:55:15.262Z,20.90
2023-07-15T22:57:44.174Z,20.90
2023-07-15T23:00:13.934Z,21.20
2023-07-15T23:02:42.896Z,20.90
2023-07-15T23:05:12.122Z,20.80
2023-07-15T23:07:41.864Z,20.80
2023-07-15T23:10:11.481Z,20.80
2023-07-15T23:12:41.759Z,20.80
2023-07-15T23:15:12.184Z,20.90
2023-07-15T23:17:41.573Z,21.00
2023-07-15T23:20:10.861Z,20.80
2023-07-15T23:22:39.466Z,20.80
2023-07-15T23:25:09.362Z,20.80
2023-07-15T23:27:38.288Z,20.80
2023-07-15T23:30:09.953Z,20.80
2023-07-15T23:32:38.590Z,20.70
2023-07-15T23:35:08.438Z,20.70
2023-07-15T23:37:37.366Z,20.70
2023-07-15T23:40:06.690Z,20.90
2023-07-15T23:42:35.063Z,20.80
2023-07-15T23:45:04.474Z,20.60
2023-07-15T23:47:34.752Z,20.60
2023-07-15T23:50:03.687Z,20.60
2023-07-15T23:52:31.885Z,20.70
2023-07-15T23:55:03.928Z,20.60
2023-07-15T23:57:34.979Z,20.60
